createdAt,value
2023-01-13T00:04:24.072Z,7.79
2023-01-13T00:09:25.189Z,7.71
2023-01-13T00:14:28.942Z,7.68
2023-01-13T00:19:29.837Z,7.66
2023-01-13T00:24:30.639Z,7.66
2023-01-13T00:29:31.392Z,7.64
2023-01-13T00:34:32.573Z,7.67
2023-01-13T00:39:33.321Z,7.69
2023-01-13T00:44:34.026Z,7.62
2023-01-13T00:49:34.884Z,7.63
2023-01-13T00:54:35.582Z,7.65
2023-01-13T00:59:36.891Z,7.68
2023-01-13T01:04:37.649Z,7.74
2023-01-13T01:09:39.145Z,7.73
2023-01-13T01:14:39.868Z,7.68
2023-01-13T01:19:41.456Z,7.75
2023-01-13T01:24:42.144Z,7.76
2023-01-13T01:29:42.992Z,7.69
2023-01-13T01:34:43.718Z,7.69
2023-01-13T01:39:44.471Z,7.74
2023-01-13T01:48:16.626Z,7.74
2023-01-13T01:53:20.235Z,7.73
2023-01-13T01:58:28.958Z,7.75
2023-01-13T02:03:30.837Z,7.73
2023-01-13T02:08:32.073Z,7.73
2023-01-13T02:13:32.877Z,7.73
2023-01-13T02:20:47.859Z,7.79
2023-01-13T02:26:12.050Z,7.79
2023-01-13T02:31:33.548Z,7.80
2023-01-13T02:36:59.223Z,7.73
2023-01-13T02:42:29.583Z,7.80
2023-01-13T02:47:35.149Z,7.81
2023-01-13T02:52:48.642Z,7.84
2023-01-13T02:57:51.987Z,7.82
2023-01-13T03:02:52.862Z,7.81
2023-01-13T03:11:06.948Z,7.86
2023-01-13T03:16:22.794Z,7.87
2023-01-13T03:21:49.083Z,7.90
2023-01-13T03:27:05.269Z,7.95
2023-01-13T03:32:19.357Z,7.87
2023-01-13T03:37:27.381Z,7.95
2023-01-13T03:42:31.596Z,7.94
2023-01-13T03:47:54.182Z,7.95
2023-01-13T03:53:05.890Z,7.91
2023-01-13T03:58:20.586Z,7.95
2023-01-13T04:05:13.647Z,7.93
2023-01-13T04:10:20.434Z,7.97
2023-01-13T04:15:24.386Z,7.95
2023-01-13T04:20:25.143Z,7.94
2023-01-13T04:25:25.960Z,7.91
2023-01-13T04:30:26.946Z,7.88
2023-01-13T04:35:27.862Z,7.80
2023-01-13T04:40:28.632Z,7.75
2023-01-13T04:45:30.137Z,7.73
2023-01-13T04:50:31.215Z,7.68
2023-01-13T04:55:32.293Z,7.36
2023-01-13T05:00:33.402Z,7.15
2023-01-13T05:05:34.432Z,6.95
2023-01-13T05:10:35.992Z,6.76
2023-01-13T05:15:58.663Z,6.52
2023-01-13T05:20:59.430Z,6.42
2023-01-13T05:26:01.069Z,6.29
2023-01-13T05:31:01.999Z,6.11
2023-01-13T05:36:03.559Z,5.98
2023-01-13T05:41:23.118Z,5.90
2023-01-13T05:46:23.980Z,5.82
2023-01-13T05:51:25.461Z,5.76
2023-01-13T05:56:26.229Z,5.70
2023-01-13T06:01:27.095Z,5.71
2023-01-13T06:06:27.973Z,5.70
2023-01-13T06:11:28.735Z,5.64
2023-01-13T06:16:29.528Z,5.66
2023-01-13T06:21:32.968Z,5.60
2023-01-13T06:26:40.757Z,5.55
2023-01-13T06:31:42.097Z,5.56
2023-01-13T06:36:47.494Z,5.46
2023-01-13T06:43:22.783Z,5.50
2023-01-13T06:48:32.153Z,5.50
2023-01-13T06:53:32.926Z,5.53
2023-01-13T06:58:33.732Z,5.49
2023-01-13T07:03:34.496Z,5.45
2023-01-13T07:08:35.326Z,5.48
2023-01-13T07:13:54.527Z,5.52
2023-01-13T07:18:55.513Z,5.39
2023-01-13T07:23:57.234Z,5.43
2023-01-13T07:28:58.359Z,5.30
2023-01-13T07:33:59.119Z,5.41
2023-01-13T07:39:00.218Z,5.31
2023-01-13T07:44:05.322Z,5.24
2023-01-13T07:49:07.527Z,5.26
2023-01-13T07:54:08.288Z,5.28
2023-01-13T07:59:09.155Z,5.37
2023-01-13T08:04:09.869Z,5.38
2023-01-13T08:09:10.850Z,5.40
2023-01-13T08:14:11.696Z,5.61
2023-01-13T08:19:12.559Z,5.63
2023-01-13T08:24:13.661Z,5.77
2023-01-13T08:29:15.228Z,5.90
2023-01-13T08:34:16.258Z,5.99
2023-01-13T08:39:17.877Z,6.26
2023-01-13T08:44:18.789Z,6.34
2023-01-13T08:49:19.990Z,6.78
2023-01-13T08:54:20.906Z,7.01
2023-01-13T08:59:21.826Z,7.15
2023-01-13T09:04:24.516Z,7.21
2023-01-13T09:09:26.920Z,6.88
2023-01-13T09:14:30.929Z,6.96
2023-01-13T09:19:31.844Z,7.28
2023-01-13T09:24:32.723Z,7.74
2023-01-13T09:29:33.833Z,8.39
2023-01-13T09:34:52.775Z,8.07
2023-01-13T09:39:53.778Z,8.27
2023-01-13T09:45:17.824Z,8.34
2023-01-13T09:50:33.264Z,8.44
2023-01-13T09:55:36.195Z,7.99
2023-01-13T10:07:13.176Z,7.32
2023-01-13T10:12:37.245Z,7.15
2023-01-13T10:17:47.218Z,6.34
2023-01-13T10:26:09.743Z,6.72
2023-01-13T10:31:14.220Z,7.61
2023-01-13T10:36:22.195Z,8.02
2023-01-13T10:41:27.010Z,8.35
2023-01-13T10:46:29.912Z,8.58
2023-01-13T10:51:43.156Z,8.03
2023-01-13T10:56:44.668Z,8.00
2023-01-13T11:02:36.229Z,8.06
2023-01-13T11:07:40.041Z,8.20
2023-01-13T11:12:53.329Z,7.80
2023-01-13T11:18:04.275Z,7.52
2023-01-13T11:23:16.654Z,7.00
2023-01-13T11:29:09.015Z,6.61
2023-01-13T11:34:26.679Z,6.72
2023-01-13T11:39:53.101Z,6.65
2023-01-13T11:46:28.104Z,6.47
2023-01-13T11:51:35.656Z,6.08
2023-01-13T12:00:27.345Z,6.08
2023-01-13T12:05:41.792Z,6.65
2023-01-13T12:11:16.030Z,7.61
2023-01-13T12:16:22.912Z,8.11
2023-01-13T12:21:28.121Z,8.43
2023-01-13T12:26:34.892Z,8.18
2023-01-13T12:31:38.974Z,7.85
2023-01-13T12:43:39.550Z,7.98
2023-01-13T12:50:20.687Z,7.70
2023-01-13T12:55:31.816Z,6.73
2023-01-13T13:01:35.451Z,6.55
2023-01-13T13:06:41.281Z,6.45
2023-01-13T13:15:19.428Z,6.47
2023-01-13T13:25:44.055Z,6.63
2023-01-13T13:31:05.153Z,6.21
2023-01-13T13:36:34.595Z,5.81
2023-01-13T13:41:54.396Z,5.70
2023-01-13T13:47:10.901Z,5.48
2023-01-13T13:54:04.258Z,5.70
2023-01-13T13:59:10.331Z,5.88
2023-01-13T14:04:25.062Z,6.75
2023-01-13T14:09:37.953Z,7.19
2023-01-13T14:14:42.543Z,7.37
2023-01-13T14:19:46.875Z,7.14
2023-01-13T14:24:54.427Z,7.03
2023-01-13T14:29:59.210Z,7.11
2023-01-13T14:35:00.119Z,7.29
2023-01-13T14:40:01.261Z,6.83
2023-01-13T14:45:02.739Z,6.57
2023-01-13T14:50:18.478Z,6.22
2023-01-13T14:55:32.979Z,6.07
2023-01-13T15:00:34.944Z,5.87
2023-01-13T15:05:38.682Z,5.82
2023-01-13T15:10:53.719Z,5.84
2023-01-13T15:16:00.793Z,5.84
2023-01-13T15:21:01.695Z,5.81
2023-01-13T15:26:03.215Z,5.86
2023-01-13T15:31:04.329Z,5.84
2023-01-13T15:36:15.978Z,5.90
2023-01-13T15:41:16.754Z,5.84
2023-01-13T15:46:37.107Z,5.80
2023-01-13T15:51:39.430Z,5.77
2023-01-13T15:56:41.410Z,5.78
2023-01-13T16:01:42.291Z,5.77
2023-01-13T16:06:43.302Z,5.72
2023-01-13T16:11:44.086Z,5.68
2023-01-13T16:16:44.907Z,5.63
2023-01-13T16:21:45.638Z,5.45
2023-01-13T16:26:46.433Z,5.28
2023-01-13T16:31:47.293Z,5.19
2023-01-13T16:36:48.155Z,5.15
2023-01-13T16:41:49.216Z,5.09
2023-01-13T16:46:50.101Z,5.13
2023-01-13T16:51:50.883Z,5.13
2023-01-13T16:56:52.171Z,5.11
2023-01-13T17:01:53.093Z,5.15
2023-01-13T17:06:57.575Z,5.21
2023-01-13T17:11:58.550Z,5.25
2023-01-13T17:16:59.339Z,5.31
2023-01-13T17:22:00.134Z,5.33
2023-01-13T17:27:02.439Z,5.38
2023-01-13T17:32:03.974Z,5.33
2023-01-13T17:37:04.842Z,5.41
2023-01-13T17:42:05.587Z,5.41
2023-01-13T17:47:06.499Z,5.38
2023-01-13T17:52:07.254Z,5.41
2023-01-13T17:57:08.914Z,5.41
2023-01-13T18:02:11.931Z,5.47
2023-01-13T18:07:12.970Z,5.49
2023-01-13T18:12:14.146Z,5.46
2023-01-13T18:17:16.146Z,5.49
2023-01-13T18:22:35.404Z,5.46
2023-01-13T18:27:39.011Z,5.45
2023-01-13T18:32:40.057Z,5.36
2023-01-13T18:37:41.455Z,5.40
2023-01-13T18:42:51.563Z,5.40
2023-01-13T18:47:54.924Z,5.40
2023-01-13T18:52:55.830Z,5.39
2023-01-13T18:57:57.561Z,5.35
2023-01-13T19:08:06.879Z,5.33
2023-01-13T19:13:07.644Z,5.34
2023-01-13T19:18:08.423Z,5.35
2023-01-13T19:23:11.035Z,5.32
2023-01-13T19:28:11.780Z,5.34
2023-01-13T19:33:12.593Z,5.34
2023-01-13T19:38:13.441Z,5.35
2023-01-13T19:43:32.751Z,5.33
2023-01-13T19:48:33.644Z,5.36
2023-01-13T19:53:34.542Z,5.39
2023-01-13T19:58:35.361Z,5.46
2023-01-13T20:03:37.501Z,5.47
2023-01-13T20:08:38.610Z,5.57
2023-01-13T20:13:39.353Z,5.67
2023-01-13T20:18:40.143Z,5.70
2023-01-13T20:23:41.179Z,5.70
2023-01-13T20:28:42.073Z,5.67
2023-01-13T20:33:43.025Z,5.64
2023-01-13T20:38:43.827Z,5.66
2023-01-13T20:43:44.568Z,5.63
2023-01-13T20:48:45.583Z,5.48
2023-01-13T20:53:46.368Z,5.39
2023-01-13T20:58:47.278Z,5.34
2023-01-13T21:03:48.636Z,5.31
2023-01-13T21:08:52.382Z,5.25
2023-01-13T21:14:11.277Z,5.16
2023-01-13T21:19:12.082Z,5.03
2023-01-13T21:24:13.229Z,4.87
2023-01-13T21:29:14.099Z,4.84
2023-01-13T21:34:15.128Z,4.75
2023-01-13T21:39:16.085Z,4.81
2023-01-13T21:44:38.377Z,4.77
2023-01-13T21:49:43.347Z,4.76
2023-01-13T21:55:02.584Z,4.81
2023-01-13T22:00:04.510Z,4.87
2023-01-13T22:05:07.988Z,4.86
2023-01-13T22:10:12.338Z,4.90
2023-01-13T22:15:15.666Z,4.98
2023-01-13T22:20:17.544Z,4.97
2023-01-13T22:25:19.380Z,4.99
2023-01-13T22:30:20.942Z,5.00
2023-01-13T22:35:21.850Z,4.94
2023-01-13T22:40:22.779Z,4.97
2023-01-13T22:45:23.609Z,4.98
2023-01-13T22:50:24.326Z,5.05
2023-01-13T22:55:25.090Z,5.05
2023-01-13T23:00:25.828Z,5.06
2023-01-13T23:05:27.197Z,5.03
2023-01-13T23:10:28.268Z,4.95
2023-01-13T23:15:30.190Z,4.90
2023-01-13T23:20:30.997Z,4.91
2023-01-13T23:25:31.772Z,4.82
2023-01-13T23:30:32.565Z,4.85
2023-01-13T23:35:33.372Z,4.78
2023-01-13T23:40:34.511Z,4.76
2023-01-13T23:45:35.328Z,4.74
2023-01-13T23:50:36.421Z,4.64
2023-01-13T23:55:37.179Z,4.69
